sensor_id;sensor_type;location;lat;lon;timestamp;P1;durP1;ratioP1;P2;durP2;ratioP2
43337;SDS011;28933;52.492;13.434;2023-11-19T00:02:04;7.00;;;5.40;;
43337;SDS011;28933;52.492;13.434;2023-11-19T01:48:44;6.05;;;4.47;;
43337;SDS011;28933;52.492;13.434;2023-11-19T01:51:31;10.50;;;5.43;;
43337;SDS011;28933;52.492;13.434;2023-11-19T01:54:17;6.35;;;4.57;;
43337;SDS011;28933;52.492;13.434;2023-11-19T01:57:03;6.03;;;4.32;;
43337;SDS011;28933;52.492;13.434;2023-11-19T01:59:52;5.68;;;4.38;;
43337;SDS011;28933;52.492;13.434;2023-11-19T02:02:40;8.57;;;4.70;;
43337;SDS011;28933;52.492;13.434;2023-11-19T02:05:26;5.93;;;4.32;;
43337;SDS011;28933;52.492;13.434;2023-11-19T02:08:12;6.43;;;4.40;;
43337;SDS011;28933;52.492;13.434;2023-11-19T02:10:59;7.13;;;4.78;;
43337;SDS011;28933;52.492;13.434;2023-11-19T02:13:45;6.63;;;4.53;;
43337;SDS011;28933;52.492;13.434;2023-11-19T02:16:31;6.90;;;4.32;;
43337;SDS011;28933;52.492;13.434;2023-11-19T02:19:20;7.05;;;4.78;;
43337;SDS011;28933;52.492;13.434;2023-11-19T02:22:06;5.45;;;4.13;;
43337;SDS011;28933;52.492;13.434;2023-11-19T02:24:54;6.93;;;5.45;;
43337;SDS011;28933;52.492;13.434;2023-11-19T02:27:57;5.85;;;4.50;;
43337;SDS011;28933;52.492;13.434;2023-11-19T02:30:45;6.65;;;4.40;;
43337;SDS011;28933;52.492;13.434;2023-11-19T02:33:31;5.78;;;4.55;;
43337;SDS011;28933;52.492;13.434;2023-11-19T02:36:17;6.63;;;4.90;;
43337;SDS011;28933;52.492;13.434;2023-11-19T02:39:03;6.35;;;4.28;;
43337;SDS011;28933;52.492;13.434;2023-11-19T02:41:54;6.95;;;4.65;;
43337;SDS011;28933;52.492;13.434;2023-11-19T02:44:43;5.85;;;4.38;;
43337;SDS011;28933;52.492;13.434;2023-11-19T02:47:30;5.97;;;4.57;;
43337;SDS011;28933;52.492;13.434;2023-11-19T02:50:17;5.30;;;3.78;;
43337;SDS011;28933;52.492;13.434;2023-11-19T02:53:10;5.65;;;4.57;;
43337;SDS011;28933;52.492;13.434;2023-11-19T02:55:56;5.45;;;4.10;;
43337;SDS011;28933;52.492;13.434;2023-11-19T02:58:54;7.07;;;3.83;;
43337;SDS011;28933;52.492;13.434;2023-11-19T03:01:41;5.40;;;3.90;;
43337;SDS011;28933;52.492;13.434;2023-11-19T03:04:29;5.53;;;3.97;;
43337;SDS011;28933;52.492;13.434;2023-11-19T03:07:16;5.45;;;3.50;;
43337;SDS011;28933;52.492;13.434;2023-11-19T03:10:03;7.43;;;4.15;;
43337;SDS011;28933;52.492;13.434;2023-11-19T03:12:51;6.43;;;3.85;;
43337;SDS011;28933;52.492;13.434;2023-11-19T03:15:36;5.47;;;3.85;;
43337;SDS011;28933;52.492;13.434;2023-11-19T03:18:22;4.95;;;3.88;;
43337;SDS011;28933;52.492;13.434;2023-11-19T03:21:08;7.63;;;3.17;;
43337;SDS011;28933;52.492;13.434;2023-11-19T03:23:54;6.82;;;3.75;;
43337;SDS011;28933;52.492;13.434;2023-11-19T03:26:40;4.78;;;4.00;;
43337;SDS011;28933;52.492;13.434;2023-11-19T03:29:28;6.07;;;4.43;;
43337;SDS011;28933;52.492;13.434;2023-11-19T03:32:14;5.32;;;4.20;;
43337;SDS011;28933;52.492;13.434;2023-11-19T03:35:00;4.95;;;3.63;;
43337;SDS011;28933;52.492;13.434;2023-11-19T03:37:47;6.15;;;3.42;;
43337;SDS011;28933;52.492;13.434;2023-11-19T03:40:33;6.35;;;3.90;;
43337;SDS011;28933;52.492;13.434;2023-11-19T03:43:19;5.80;;;3.80;;
43337;SDS011;28933;52.492;13.434;2023-11-19T03:46:05;4.75;;;3.72;;
43337;SDS011;28933;52.492;13.434;2023-11-19T03:49:07;4.60;;;4.00;;
43337;SDS011;28933;52.492;13.434;2023-11-19T03:51:53;6.32;;;4.00;;
43337;SDS011;28933;52.492;13.434;2023-11-19T03:54:39;5.65;;;4.13;;
43337;SDS011;28933;52.492;13.434;2023-11-19T03:57:25;5.50;;;3.85;;
43337;SDS011;28933;52.492;13.434;2023-11-19T04:00:11;5.35;;;4.13;;
43337;SDS011;28933;52.492;13.434;2023-11-19T04:02:59;6.10;;;3.92;;
43337;SDS011;28933;52.492;13.434;2023-11-19T04:05:45;7.65;;;4.45;;
43337;SDS011;28933;52.492;13.434;2023-11-19T04:08:31;6.05;;;3.45;;
43337;SDS011;28933;52.492;13.434;2023-11-19T04:11:17;5.43;;;3.80;;
43337;SDS011;28933;52.492;13.434;2023-11-19T04:14:03;7.78;;;3.95;;
43337;SDS011;28933;52.492;13.434;2023-11-19T04:16:49;7.30;;;4.93;;
43337;SDS011;28933;52.492;13.434;2023-11-19T04:19:36;5.32;;;3.97;;
43337;SDS011;28933;52.492;13.434;2023-11-19T04:22:22;7.00;;;4.22;;
43337;SDS011;28933;52.492;13.434;2023-11-19T04:25:08;6.25;;;4.82;;
43337;SDS011;28933;52.492;13.434;2023-11-19T04:27:54;6.63;;;4.55;;
43337;SDS011;28933;52.492;13.434;2023-11-19T04:30:40;4.72;;;3.65;;
43337;SDS011;28933;52.492;13.434;2023-11-19T04:33:26;4.90;;;4.07;;
43337;SDS011;28933;52.492;13.434;2023-11-19T04:36:12;7.82;;;4.65;;
43337;SDS011;28933;52.492;13.434;2023-11-19T04:39:00;6.15;;;4.70;;
43337;SDS011;28933;52.492;13.434;2023-11-19T04:41:46;8.25;;;4.43;;
43337;SDS011;28933;52.492;13.434;2023-11-19T04:44:37;5.72;;;4.28;;
43337;SDS011;28933;52.492;13.434;2023-11-19T04:47:23;6.30;;;4.38;;
43337;SDS011;28933;52.492;13.434;2023-11-19T04:50:09;6.78;;;4.05;;
43337;SDS011;28933;52.492;13.434;2023-11-19T04:52:56;6.35;;;4.90;;
43337;SDS011;28933;52.492;13.434;2023-11-19T04:55:42;6.60;;;5.10;;
43337;SDS011;28933;52.492;13.434;2023-11-19T04:58:28;7.10;;;4.82;;
43337;SDS011;28933;52.492;13.434;2023-11-19T05:01:14;6.60;;;4.85;;
43337;SDS011;28933;52.492;13.434;2023-11-19T05:04:03;6.97;;;4.53;;
43337;SDS011;28933;52.492;13.434;2023-11-19T05:06:49;5.93;;;4.80;;
43337;SDS011;28933;52.492;13.434;2023-11-19T05:09:35;7.53;;;4.85;;
43337;SDS011;28933;52.492;13.434;2023-11-19T05:12:21;7.30;;;5.30;;
43337;SDS011;28933;52.492;13.434;2023-11-19T05:15:08;6.03;;;4.45;;
43337;SDS011;28933;52.492;13.434;2023-11-19T05:17:54;6.70;;;4.78;;
43337;SDS011;28933;52.492;13.434;2023-11-19T05:20:40;5.55;;;3.97;;
43337;SDS011;28933;52.492;13.434;2023-11-19T05:23:26;5.25;;;3.97;;
43337;SDS011;28933;52.492;13.434;2023-11-19T05:26:19;6.30;;;4.75;;
43337;SDS011;28933;52.492;13.434;2023-11-19T05:29:05;7.07;;;5.10;;
43337;SDS011;28933;52.492;13.434;2023-11-19T05:31:51;8.13;;;4.70;;
43337;SDS011;28933;52.492;13.434;2023-11-19T05:34:37;7.13;;;4.10;;
43337;SDS011;28933;52.492;13.434;2023-11-19T05:37:23;7.30;;;4.88;;
43337;SDS011;28933;52.492;13.434;2023-11-19T05:40:10;5.95;;;4.25;;
43337;SDS011;28933;52.492;13.434;2023-11-19T05:43:02;8.40;;;4.70;;
43337;SDS011;28933;52.492;13.434;2023-11-19T05:45:48;5.50;;;4.40;;
43337;SDS011;28933;52.492;13.434;2023-11-19T05:48:34;6.07;;;4.50;;
43337;SDS011;28933;52.492;13.434;2023-11-19T05:51:20;8.02;;;5.63;;
43337;SDS011;28933;52.492;13.434;2023-11-19T05:54:09;5.35;;;4.43;;
43337;SDS011;28933;52.492;13.434;2023-11-19T05:56:56;6.07;;;4.60;;
43337;SDS011;28933;52.492;13.434;2023-11-19T05:59:42;6.10;;;4.43;;
43337;SDS011;28933;52.492;13.434;2023-11-19T06:02:29;5.95;;;4.25;;
43337;SDS011;28933;52.492;13.434;2023-11-19T06:05:15;6.72;;;4.80;;
43337;SDS011;28933;52.492;13.434;2023-11-19T06:08:01;6.15;;;4.57;;
43337;SDS011;28933;52.492;13.434;2023-11-19T06:10:47;6.10;;;4.38;;
43337;SDS011;28933;52.492;13.434;2023-11-19T06:13:35;6.55;;;4.47;;
43337;SDS011;28933;52.492;13.434;2023-11-19T06:16:22;5.20;;;4.13;;
43337;SDS011;28933;52.492;13.434;2023-11-19T06:19:08;5.63;;;3.97;;
43337;SDS011;28933;52.492;13.434;2023-11-19T06:21:55;5.70;;;4.03;;
43337;SDS011;28933;52.492;13.434;2023-11-19T06:24:41;5.18;;;4.15;;
43337;SDS011;28933;52.492;13.434;2023-11-19T06:27:27;5.45;;;3.67;;
43337;SDS011;28933;52.492;13.434;2023-11-19T06:30:13;6.13;;;3.55;;
43337;SDS011;28933;52.492;13.434;2023-11-19T06:32:59;5.18;;;3.67;;
43337;SDS011;28933;52.492;13.434;2023-11-19T06:35:45;5.18;;;3.88;;
43337;SDS011;28933;52.492;13.434;2023-11-19T06:38:31;5.57;;;4.00;;
43337;SDS011;28933;52.492;13.434;2023-11-19T06:41:17;4.50;;;3.72;;
43337;SDS011;28933;52.492;13.434;2023-11-19T06:44:03;4.78;;;3.67;;
43337;SDS011;28933;52.492;13.434;2023-11-19T06:46:50;5.43;;;3.83;;
43337;SDS011;28933;52.492;13.434;2023-11-19T06:49:36;5.85;;;3.78;;
43337;SDS011;28933;52.492;13.434;2023-11-19T06:52:22;5.30;;;3.53;;
43337;SDS011;28933;52.492;13.434;2023-11-19T06:55:09;5.13;;;3.70;;
43337;SDS011;28933;52.492;13.434;2023-11-19T06:57:54;4.63;;;3.35;;
43337;SDS011;28933;52.492;13.434;2023-11-19T07:00:40;5.40;;;3.80;;
43337;SDS011;28933;52.492;13.434;2023-11-19T07:03:26;6.03;;;4.40;;
43337;SDS011;28933;52.492;13.434;2023-11-19T07:06:12;4.25;;;3.40;;
43337;SDS011;28933;52.492;13.434;2023-11-19T07:08:59;5.82;;;4.20;;
43337;SDS011;28933;52.492;13.434;2023-11-19T07:11:45;6.65;;;4.35;;
43337;SDS011;28933;52.492;13.434;2023-11-19T07:14:31;5.40;;;4.13;;
43337;SDS011;28933;52.492;13.434;2023-11-19T07:17:18;6.55;;;4.13;;
43337;SDS011;28933;52.492;13.434;2023-11-19T07:20:05;5.22;;;3.30;;
43337;SDS011;28933;52.492;13.434;2023-11-19T07:22:52;5.32;;;3.83;;
43337;SDS011;28933;52.492;13.434;2023-11-19T07:25:38;4.63;;;3.42;;
43337;SDS011;28933;52.492;13.434;2023-11-19T07:28:24;5.85;;;3.30;;
43337;SDS011;28933;52.492;13.434;2023-11-19T07:31:10;4.68;;;3.72;;
43337;SDS011;28933;52.492;13.434;2023-11-19T07:33:56;4.07;;;3.30;;
43337;SDS011;28933;52.492;13.434;2023-11-19T07:36:42;4.88;;;3.25;;
43337;SDS011;28933;52.492;13.434;2023-11-19T07:39:28;4.75;;;3.35;;
43337;SDS011;28933;52.492;13.434;2023-11-19T07:42:14;4.30;;;3.35;;
43337;SDS011;28933;52.492;13.434;2023-11-19T07:45:00;5.13;;;3.75;;
43337;SDS011;28933;52.492;13.434;2023-11-19T07:47:46;4.55;;;3.58;;
43337;SDS011;28933;52.492;13.434;2023-11-19T07:50:32;4.70;;;3.28;;
43337;SDS011;28933;52.492;13.434;2023-11-19T07:53:18;5.07;;;3.63;;
43337;SDS011;28933;52.492;13.434;2023-11-19T07:56:05;4.80;;;3.83;;
43337;SDS011;28933;52.492;13.434;2023-11-19T07:58:51;5.65;;;3.90;;
43337;SDS011;28933;52.492;13.434;2023-11-19T08:01:38;4.30;;;3.25;;
43337;SDS011;28933;52.492;13.434;2023-11-19T08:04:24;4.40;;;3.55;;
43337;SDS011;28933;52.492;13.434;2023-11-19T08:07:10;6.15;;;3.95;;
43337;SDS011;28933;52.492;13.434;2023-11-19T08:09:56;4.18;;;3.35;;
43337;SDS011;28933;52.492;13.434;2023-11-19T08:12:42;5.50;;;3.75;;
43337;SDS011;28933;52.492;13.434;2023-11-19T08:15:28;4.53;;;2.85;;
43337;SDS011;28933;52.492;13.434;2023-11-19T08:18:14;5.78;;;4.10;;
43337;SDS011;28933;52.492;13.434;2023-11-19T08:21:00;4.97;;;3.50;;
43337;SDS011;28933;52.492;13.434;2023-11-19T08:23:46;5.00;;;3.45;;
43337;SDS011;28933;52.492;13.434;2023-11-19T08:26:32;4.25;;;3.45;;
43337;SDS011;28933;52.492;13.434;2023-11-19T08:29:18;6.43;;;3.70;;
43337;SDS011;28933;52.492;13.434;2023-11-19T08:32:04;4.32;;;3.20;;
43337;SDS011;28933;52.492;13.434;2023-11-19T08:34:50;4.07;;;2.88;;
43337;SDS011;28933;52.492;13.434;2023-11-19T08:37:36;4.60;;;3.67;;
43337;SDS011;28933;52.492;13.434;2023-11-19T08:40:23;4.47;;;3.22;;
43337;SDS011;28933;52.492;13.434;2023-11-19T08:43:09;4.57;;;3.63;;
43337;SDS011;28933;52.492;13.434;2023-11-19T08:45:54;4.53;;;3.45;;
43337;SDS011;28933;52.492;13.434;2023-11-19T08:48:40;4.45;;;3.25;;
43337;SDS011;28933;52.492;13.434;2023-11-19T08:51:26;5.57;;;4.07;;
43337;SDS011;28933;52.492;13.434;2023-11-19T08:54:13;4.38;;;3.50;;
43337;SDS011;28933;52.492;13.434;2023-11-19T08:56:59;5.07;;;3.70;;
43337;SDS011;28933;52.492;13.434;2023-11-19T08:59:45;5.13;;;3.67;;
43337;SDS011;28933;52.492;13.434;2023-11-19T09:02:31;5.15;;;3.92;;
43337;SDS011;28933;52.492;13.434;2023-11-19T09:05:17;5.55;;;3.88;;
43337;SDS011;28933;52.492;13.434;2023-11-19T09:08:03;7.30;;;4.28;;
43337;SDS011;28933;52.492;13.434;2023-11-19T09:10:50;5.30;;;4.28;;
43337;SDS011;28933;52.492;13.434;2023-11-19T09:13:36;5.00;;;3.85;;
43337;SDS011;28933;52.492;13.434;2023-11-19T09:16:22;4.97;;;3.92;;
43337;SDS011;28933;52.492;13.434;2023-11-19T09:19:09;6.63;;;3.90;;
43337;SDS011;28933;52.492;13.434;2023-11-19T09:21:55;4.05;;;3.40;;
43337;SDS011;28933;52.492;13.434;2023-11-19T09:24:41;5.25;;;3.63;;
43337;SDS011;28933;52.492;13.434;2023-11-19T09:27:29;5.68;;;3.60;;
43337;SDS011;28933;52.492;13.434;2023-11-19T09:30:15;3.90;;;3.10;;
43337;SDS011;28933;52.492;13.434;2023-11-19T09:33:01;5.85;;;3.20;;
43337;SDS011;28933;52.492;13.434;2023-11-19T09:35:47;4.53;;;3.28;;
43337;SDS011;28933;52.492;13.434;2023-11-19T09:38:35;4.28;;;3.40;;
43337;SDS011;28933;52.492;13.434;2023-11-19T09:41:23;5.15;;;2.90;;
43337;SDS011;28933;52.492;13.434;2023-11-19T09:44:10;5.43;;;3.63;;
43337;SDS011;28933;52.492;13.434;2023-11-19T09:46:58;4.40;;;2.80;;
43337;SDS011;28933;52.492;13.434;2023-11-19T09:49:44;6.32;;;3.40;;
43337;SDS011;28933;52.492;13.434;2023-11-19T09:52:30;3.67;;;2.97;;
43337;SDS011;28933;52.492;13.434;2023-11-19T09:55:16;6.22;;;3.28;;
43337;SDS011;28933;52.492;13.434;2023-11-19T09:58:02;5.93;;;3.22;;
43337;SDS011;28933;52.492;13.434;2023-11-19T10:00:49;5.13;;;3.47;;
43337;SDS011;28933;52.492;13.434;2023-11-19T10:03:37;6.25;;;3.90;;
43337;SDS011;28933;52.492;13.434;2023-11-19T10:06:25;5.10;;;3.22;;
43337;SDS011;28933;52.492;13.434;2023-11-19T10:09:12;4.50;;;2.65;;
43337;SDS011;28933;52.492;13.434;2023-11-19T10:12:00;6.30;;;3.40;;
43337;SDS011;28933;52.492;13.434;2023-11-19T10:14:47;4.68;;;2.45;;
43337;SDS011;28933;52.492;13.434;2023-11-19T10:17:34;4.50;;;2.65;;
43337;SDS011;28933;52.492;13.434;2023-11-19T10:20:20;3.85;;;2.53;;
43337;SDS011;28933;52.492;13.434;2023-11-19T10:23:06;4.20;;;2.63;;
43337;SDS011;28933;52.492;13.434;2023-11-19T10:25:52;3.35;;;2.30;;
43337;SDS011;28933;52.492;13.434;2023-11-19T10:28:39;4.90;;;3.28;;
43337;SDS011;28933;52.492;13.434;2023-11-19T10:31:31;5.32;;;2.75;;
43337;SDS011;28933;52.492;13.434;2023-11-19T10:34:26;5.68;;;2.70;;
43337;SDS011;28933;52.492;13.434;2023-11-19T10:40:15;6.72;;;3.03;;
43337;SDS011;28933;52.492;13.434;2023-11-19T10:43:01;5.32;;;2.47;;
43337;SDS011;28933;52.492;13.434;2023-11-19T10:45:48;5.22;;;3.25;;
43337;SDS011;28933;52.492;13.434;2023-11-19T10:48:35;4.30;;;2.33;;
43337;SDS011;28933;52.492;13.434;2023-11-19T10:51:21;4.35;;;1.92;;
43337;SDS011;28933;52.492;13.434;2023-11-19T10:54:07;6.22;;;3.22;;
43337;SDS011;28933;52.492;13.434;2023-11-19T10:56:55;5.22;;;2.45;;
43337;SDS011;28933;52.492;13.434;2023-11-19T10:59:46;7.47;;;2.63;;
43337;SDS011;28933;52.492;13.434;2023-11-19T11:02:35;7.45;;;3.03;;
43337;SDS011;28933;52.492;13.434;2023-11-19T11:05:27;4.57;;;3.15;;
43337;SDS011;28933;52.492;13.434;2023-11-19T11:08:14;5.97;;;3.00;;
43337;SDS011;28933;52.492;13.434;2023-11-19T11:11:01;16.02;;;2.78;;
43337;SDS011;28933;52.492;13.434;2023-11-19T11:13:50;9.00;;;4.05;;
43337;SDS011;28933;52.492;13.434;2023-11-19T11:16:37;6.90;;;2.92;;
43337;SDS011;28933;52.492;13.434;2023-11-19T11:19:26;8.90;;;2.50;;
43337;SDS011;28933;52.492;13.434;2023-11-19T11:22:12;8.13;;;3.30;;
43337;SDS011;28933;52.492;13.434;2023-11-19T11:25:05;7.75;;;3.35;;
43337;SDS011;28933;52.492;13.434;2023-11-19T11:40:15;7.78;;;3.08;;
43337;SDS011;28933;52.492;13.434;2023-11-19T11:43:03;7.97;;;3.72;;
43337;SDS011;28933;52.492;13.434;2023-11-19T11:45:50;8.68;;;3.40;;
43337;SDS011;28933;52.492;13.434;2023-11-19T11:48:36;11.65;;;3.55;;
43337;SDS011;28933;52.492;13.434;2023-11-19T11:54:30;10.73;;;3.25;;
43337;SDS011;28933;52.492;13.434;2023-11-19T11:57:17;12.50;;;4.25;;
43337;SDS011;28933;52.492;13.434;2023-11-19T12:00:03;13.95;;;4.38;;
43337;SDS011;28933;52.492;13.434;2023-11-19T12:02:56;11.32;;;3.83;;
43337;SDS011;28933;52.492;13.434;2023-11-19T12:05:46;8.52;;;3.67;;
43337;SDS011;28933;52.492;13.434;2023-11-19T12:08:33;11.60;;;3.90;;
43337;SDS011;28933;52.492;13.434;2023-11-19T12:11:20;7.97;;;2.95;;
43337;SDS011;28933;52.492;13.434;2023-11-19T12:14:09;15.82;;;3.95;;
43337;SDS011;28933;52.492;13.434;2023-11-19T12:16:57;8.32;;;3.20;;
43337;SDS011;28933;52.492;13.434;2023-11-19T12:19:59;9.80;;;3.63;;
43337;SDS011;28933;52.492;13.434;2023-11-19T12:22:47;11.15;;;4.05;;
43337;SDS011;28933;52.492;13.434;2023-11-19T12:25:34;12.82;;;4.70;;
43337;SDS011;28933;52.492;13.434;2023-11-19T12:28:21;5.90;;;3.08;;
43337;SDS011;28933;52.492;13.434;2023-11-19T12:31:09;9.85;;;3.80;;
43337;SDS011;28933;52.492;13.434;2023-11-19T12:33:55;13.63;;;4.45;;
43337;SDS011;28933;52.492;13.434;2023-11-19T12:36:41;18.30;;;4.03;;
43337;SDS011;28933;52.492;13.434;2023-11-19T12:39:31;12.82;;;3.70;;
43337;SDS011;28933;52.492;13.434;2023-11-19T12:42:17;12.68;;;3.55;;
43337;SDS011;28933;52.492;13.434;2023-11-19T12:45:03;9.45;;;3.83;;
43337;SDS011;28933;52.492;13.434;2023-11-19T12:47:50;11.32;;;3.72;;
43337;SDS011;28933;52.492;13.434;2023-11-19T12:53:47;17.92;;;5.03;;
43337;SDS011;28933;52.492;13.434;2023-11-19T12:56:35;11.52;;;4.13;;
43337;SDS011;28933;52.492;13.434;2023-11-19T12:59:23;19.45;;;7.07;;
43337;SDS011;28933;52.492;13.434;2023-11-19T13:02:09;32.13;;;7.95;;
43337;SDS011;28933;52.492;13.434;2023-11-19T13:04:55;13.90;;;4.07;;
43337;SDS011;28933;52.492;13.434;2023-11-19T13:07:41;24.08;;;6.95;;
43337;SDS011;28933;52.492;13.434;2023-11-19T13:10:27;12.00;;;4.93;;
43337;SDS011;28933;52.492;13.434;2023-11-19T13:13:13;12.18;;;4.93;;
43337;SDS011;28933;52.492;13.434;2023-11-19T13:16:03;19.23;;;4.70;;
43337;SDS011;28933;52.492;13.434;2023-11-19T13:18:52;10.35;;;4.25;;
43337;SDS011;28933;52.492;13.434;2023-11-19T13:21:38;13.85;;;4.55;;
43337;SDS011;28933;52.492;13.434;2023-11-19T13:24:25;11.90;;;4.55;;
43337;SDS011;28933;52.492;13.434;2023-11-19T13:27:11;11.73;;;4.10;;
43337;SDS011;28933;52.492;13.434;2023-11-19T13:29:56;13.70;;;4.85;;
43337;SDS011;28933;52.492;13.434;2023-11-19T13:32:44;14.98;;;4.13;;
43337;SDS011;28933;52.492;13.434;2023-11-19T13:35:31;17.95;;;4.88;;
43337;SDS011;28933;52.492;13.434;2023-11-19T13:38:17;10.10;;;3.75;;
43337;SDS011;28933;52.492;13.434;2023-11-19T13:41:03;16.60;;;4.60;;
43337;SDS011;28933;52.492;13.434;2023-11-19T13:43:49;12.95;;;4.72;;
43337;SDS011;28933;52.492;13.434;2023-11-19T13:46:35;14.10;;;5.10;;
43337;SDS011;28933;52.492;13.434;2023-11-19T13:49:21;10.48;;;3.92;;
43337;SDS011;28933;52.492;13.434;2023-11-19T13:52:07;18.05;;;4.20;;
43337;SDS011;28933;52.492;13.434;2023-11-19T13:54:53;14.15;;;4.25;;
43337;SDS011;28933;52.492;13.434;2023-11-19T13:57:40;14.05;;;4.10;;
43337;SDS011;28933;52.492;13.434;2023-11-19T14:00:27;15.57;;;5.78;;
43337;SDS011;28933;52.492;13.434;2023-11-19T14:03:13;8.10;;;3.70;;
43337;SDS011;28933;52.492;13.434;2023-11-19T14:05:59;13.43;;;4.60;;
43337;SDS011;28933;52.492;13.434;2023-11-19T14:08:46;12.65;;;5.35;;
43337;SDS011;28933;52.492;13.434;2023-11-19T14:11:32;14.57;;;4.43;;
43337;SDS011;28933;52.492;13.434;2023-11-19T14:14:18;22.35;;;5.28;;
43337;SDS011;28933;52.492;13.434;2023-11-19T14:17:04;11.55;;;5.07;;
43337;SDS011;28933;52.492;13.434;2023-11-19T14:19:50;15.68;;;5.50;;
43337;SDS011;28933;52.492;13.434;2023-11-19T14:22:36;18.92;;;5.82;;
43337;SDS011;28933;52.492;13.434;2023-11-19T14:25:22;20.10;;;7.10;;
43337;SDS011;28933;52.492;13.434;2023-11-19T14:28:09;15.23;;;6.20;;
43337;SDS011;28933;52.492;13.434;2023-11-19T14:30:55;15.93;;;6.57;;
43337;SDS011;28933;52.492;13.434;2023-11-19T14:33:42;12.90;;;5.43;;
43337;SDS011;28933;52.492;13.434;2023-11-19T14:36:28;13.43;;;5.45;;
43337;SDS011;28933;52.492;13.434;2023-11-19T14:39:14;17.05;;;5.13;;
43337;SDS011;28933;52.492;13.434;2023-11-19T14:42:00;14.20;;;5.55;;
43337;SDS011;28933;52.492;13.434;2023-11-19T14:44:49;16.83;;;6.32;;
43337;SDS011;28933;52.492;13.434;2023-11-19T14:47:37;13.50;;;5.15;;
43337;SDS011;28933;52.492;13.434;2023-11-19T14:50:23;13.30;;;4.53;;
43337;SDS011;28933;52.492;13.434;2023-11-19T14:53:10;15.27;;;5.18;;
43337;SDS011;28933;52.492;13.434;2023-11-19T14:55:56;18.77;;;6.50;;
43337;SDS011;28933;52.492;13.434;2023-11-19T14:58:42;17.67;;;4.97;;
43337;SDS011;28933;52.492;13.434;2023-11-19T15:01:30;13.52;;;5.30;;
43337;SDS011;28933;52.492;13.434;2023-11-19T15:04:16;11.52;;;4.00;;
43337;SDS011;28933;52.492;13.434;2023-11-19T15:07:03;15.57;;;5.18;;
43337;SDS011;28933;52.492;13.434;2023-11-19T15:09:49;11.30;;;4.35;;
43337;SDS011;28933;52.492;13.434;2023-11-19T15:12:38;14.88;;;4.63;;
43337;SDS011;28933;52.492;13.434;2023-11-19T15:19:08;16.45;;;5.68;;
43337;SDS011;28933;52.492;13.434;2023-11-19T15:21:54;12.50;;;4.95;;
43337;SDS011;28933;52.492;13.434;2023-11-19T15:24:40;13.88;;;4.95;;
43337;SDS011;28933;52.492;13.434;2023-11-19T15:27:27;25.55;;;5.45;;
43337;SDS011;28933;52.492;13.434;2023-11-19T15:30:13;19.08;;;6.97;;
43337;SDS011;28933;52.492;13.434;2023-11-19T15:32:59;16.25;;;5.60;;
43337;SDS011;28933;52.492;13.434;2023-11-19T15:35:44;16.27;;;5.85;;
43337;SDS011;28933;52.492;13.434;2023-11-19T15:38:31;13.90;;;5.43;;
43337;SDS011;28933;52.492;13.434;2023-11-19T15:41:16;19.02;;;6.32;;
43337;SDS011;28933;52.492;13.434;2023-11-19T15:44:02;13.63;;;5.55;;
43337;SDS011;28933;52.492;13.434;2023-11-19T15:46:49;15.60;;;7.38;;
43337;SDS011;28933;52.492;13.434;2023-11-19T15:49:35;19.05;;;5.93;;
43337;SDS011;28933;52.492;13.434;2023-11-19T15:52:22;13.55;;;6.25;;
43337;SDS011;28933;52.492;13.434;2023-11-19T15:55:08;16.00;;;6.63;;
43337;SDS011;28933;52.492;13.434;2023-11-19T15:57:54;17.20;;;6.60;;
43337;SDS011;28933;52.492;13.434;2023-11-19T16:00:40;22.90;;;8.60;;
43337;SDS011;28933;52.492;13.434;2023-11-19T16:03:31;18.95;;;7.45;;
43337;SDS011;28933;52.492;13.434;2023-11-19T16:06:18;20.88;;;7.03;;
43337;SDS011;28933;52.492;13.434;2023-11-19T16:09:04;20.75;;;8.30;;
43337;SDS011;28933;52.492;13.434;2023-11-19T16:11:50;18.23;;;8.52;;
43337;SDS011;28933;52.492;13.434;2023-11-19T16:14:36;23.58;;;8.98;;
43337;SDS011;28933;52.492;13.434;2023-11-19T16:17:22;24.05;;;8.50;;
43337;SDS011;28933;52.492;13.434;2023-11-19T16:20:09;21.92;;;8.48;;
43337;SDS011;28933;52.492;13.434;2023-11-19T16:22:55;21.27;;;7.80;;
43337;SDS011;28933;52.492;13.434;2023-11-19T16:25:44;24.70;;;7.57;;
43337;SDS011;28933;52.492;13.434;2023-11-19T16:28:30;23.98;;;8.10;;
43337;SDS011;28933;52.492;13.434;2023-11-19T16:31:16;18.55;;;6.72;;
43337;SDS011;28933;52.492;13.434;2023-11-19T16:34:02;15.50;;;5.88;;
43337;SDS011;28933;52.492;13.434;2023-11-19T16:36:50;18.30;;;7.28;;
43337;SDS011;28933;52.492;13.434;2023-11-19T16:39:36;21.88;;;7.88;;
43337;SDS011;28933;52.492;13.434;2023-11-19T16:42:22;19.95;;;8.38;;
43337;SDS011;28933;52.492;13.434;2023-11-19T16:45:08;20.45;;;8.75;;
43337;SDS011;28933;52.492;13.434;2023-11-19T16:47:54;18.17;;;8.90;;
43337;SDS011;28933;52.492;13.434;2023-11-19T16:50:40;23.30;;;8.00;;
43337;SDS011;28933;52.492;13.434;2023-11-19T16:53:26;17.73;;;7.82;;
43337;SDS011;28933;52.492;13.434;2023-11-19T16:56:13;17.17;;;7.15;;
43337;SDS011;28933;52.492;13.434;2023-11-19T16:59:00;20.25;;;7.13;;
43337;SDS011;28933;52.492;13.434;2023-11-19T17:01:46;15.90;;;7.97;;
43337;SDS011;28933;52.492;13.434;2023-11-19T17:04:33;21.20;;;8.32;;
43337;SDS011;28933;52.492;13.434;2023-11-19T17:07:19;18.90;;;7.78;;
43337;SDS011;28933;52.492;13.434;2023-11-19T17:10:05;20.38;;;7.22;;
43337;SDS011;28933;52.492;13.434;2023-11-19T17:12:52;14.35;;;5.97;;
43337;SDS011;28933;52.492;13.434;2023-11-19T17:15:38;19.75;;;6.20;;
43337;SDS011;28933;52.492;13.434;2023-11-19T17:18:24;18.42;;;7.63;;
43337;SDS011;28933;52.492;13.434;2023-11-19T17:21:10;19.42;;;8.07;;
43337;SDS011;28933;52.492;13.434;2023-11-19T17:23:56;17.27;;;8.02;;
43337;SDS011;28933;52.492;13.434;2023-11-19T17:26:42;22.80;;;8.50;;
43337;SDS011;28933;52.492;13.434;2023-11-19T17:29:29;20.98;;;7.40;;
43337;SDS011;28933;52.492;13.434;2023-11-19T17:32:15;20.20;;;8.30;;
43337;SDS011;28933;52.492;13.434;2023-11-19T17:35:01;21.58;;;8.85;;
43337;SDS011;28933;52.492;13.434;2023-11-19T17:37:46;26.58;;;9.60;;
43337;SDS011;28933;52.492;13.434;2023-11-19T17:40:33;19.60;;;7.45;;
43337;SDS011;28933;52.492;13.434;2023-11-19T17:43:19;16.55;;;7.57;;
43337;SDS011;28933;52.492;13.434;2023-11-19T17:46:04;18.45;;;6.70;;
43337;SDS011;28933;52.492;13.434;2023-11-19T17:48:51;17.08;;;7.03;;
43337;SDS011;28933;52.492;13.434;2023-11-19T17:51:37;18.75;;;7.90;;
43337;SDS011;28933;52.492;13.434;2023-11-19T17:54:23;19.30;;;9.65;;
43337;SDS011;28933;52.492;13.434;2023-11-19T17:57:09;24.10;;;9.35;;
43337;SDS011;28933;52.492;13.434;2023-11-19T17:59:55;15.63;;;7.05;;
43337;SDS011;28933;52.492;13.434;2023-11-19T18:02:41;19.38;;;7.88;;
43337;SDS011;28933;52.492;13.434;2023-11-19T18:05:37;21.52;;;7.97;;
43337;SDS011;28933;52.492;13.434;2023-11-19T18:08:42;14.63;;;6.05;;
43337;SDS011;28933;52.492;13.434;2023-11-19T18:11:28;14.82;;;6.65;;
43337;SDS011;28933;52.492;13.434;2023-11-19T18:14:14;11.45;;;4.72;;
43337;SDS011;28933;52.492;13.434;2023-11-19T18:17:00;17.20;;;6.30;;
43337;SDS011;28933;52.492;13.434;2023-11-19T18:19:46;22.98;;;6.53;;
43337;SDS011;28933;52.492;13.434;2023-11-19T18:22:32;16.17;;;6.28;;
43337;SDS011;28933;52.492;13.434;2023-11-19T18:25:18;14.75;;;6.18;;
43337;SDS011;28933;52.492;13.434;2023-11-19T18:28:04;15.43;;;7.07;;
43337;SDS011;28933;52.492;13.434;2023-11-19T18:30:51;11.75;;;5.47;;
43337;SDS011;28933;52.492;13.434;2023-11-19T18:33:37;13.73;;;5.10;;